createdAt,value
2022-10-13T04:00:23.173Z,16.35
2022-10-13T04:03:25.859Z,16.30
2022-10-13T04:06:29.402Z,15.30
2022-10-13T04:09:31.723Z,15.90
2022-10-13T04:12:33.757Z,16.08
2022-10-13T04:15:37.665Z,15.93
2022-10-13T04:18:44.356Z,14.90
2022-10-13T04:21:47.141Z,16.58
2022-10-13T04:24:49.214Z,15.63
2022-10-13T04:27:51.570Z,16.37
2022-10-13T04:30:53.617Z,15.98
2022-10-13T04:33:56.724Z,15.65
2022-10-13T04:36:58.741Z,15.27
2022-10-13T04:40:01.050Z,16.33
2022-10-13T04:43:03.201Z,16.27
2022-10-13T04:46:26.406Z,15.43
2022-10-13T04:49:29.469Z,16.98
2022-10-13T04:52:31.759Z,17.35
2022-10-13T04:55:36.235Z,17.85
2022-10-13T04:58:39.834Z,16.92
2022-10-13T05:01:42.162Z,20.55
2022-10-13T05:04:48.374Z,16.20
2022-10-13T05:07:50.849Z,16.95
2022-10-13T05:11:01.414Z,21.40
2022-10-13T05:14:03.554Z,17.60
2022-10-13T05:17:05.893Z,16.75
2022-10-13T05:20:08.778Z,17.52
2022-10-13T05:23:11.339Z,18.85
2022-10-13T05:26:16.697Z,18.50
2022-10-13T05:29:19.303Z,17.87
2022-10-13T05:32:22.070Z,18.60
2022-10-13T05:35:25.775Z,20.80
2022-10-13T05:38:27.874Z,18.87
2022-10-13T05:41:31.000Z,18.33
2022-10-13T05:44:33.076Z,17.92
2022-10-13T05:47:35.370Z,18.92
2022-10-13T05:50:37.742Z,27.80
2022-10-13T05:53:49.160Z,18.00
2022-10-13T05:56:59.534Z,18.33
2022-10-13T06:00:11.220Z,20.98
2022-10-13T06:03:17.541Z,19.98
2022-10-13T06:06:25.848Z,19.00
2022-10-13T06:09:37.922Z,19.70
2022-10-13T06:12:40.285Z,19.20
2022-10-13T06:15:42.333Z,20.08
2022-10-13T06:18:44.640Z,19.33
2022-10-13T06:21:48.226Z,19.35
2022-10-13T06:24:50.493Z,19.98
2022-10-13T06:27:52.566Z,20.73
2022-10-13T06:30:56.822Z,19.83
2022-10-13T06:33:59.666Z,18.98
2022-10-13T06:37:01.962Z,19.55
2022-10-13T06:40:04.433Z,20.88
2022-10-13T06:43:07.015Z,21.33
2022-10-13T06:46:15.262Z,19.23
2022-10-13T06:49:17.938Z,19.75
2022-10-13T06:52:20.233Z,21.15
2022-10-13T06:55:23.016Z,20.67
2022-10-13T06:58:25.305Z,20.05
2022-10-13T07:01:27.659Z,20.35
2022-10-13T07:04:29.732Z,21.83
2022-10-13T07:07:33.177Z,21.10
2022-10-13T07:10:38.247Z,21.17
2022-10-13T07:13:46.133Z,21.08
2022-10-13T07:16:50.721Z,22.00
2022-10-13T07:19:57.148Z,21.33
2022-10-13T07:23:00.206Z,20.52
2022-10-13T07:26:07.453Z,21.77
2022-10-13T07:29:09.646Z,17.37
2022-10-13T07:32:11.957Z,16.25
2022-10-13T07:35:14.036Z,15.70
2022-10-13T07:38:16.471Z,15.57
2022-10-13T07:41:18.806Z,16.65
2022-10-13T07:44:21.110Z,15.95
2022-10-13T07:47:23.371Z,15.65
2022-10-13T07:50:25.675Z,14.82
2022-10-13T07:53:28.068Z,13.93
2022-10-13T07:56:30.486Z,14.13
2022-10-13T07:59:33.817Z,14.40
2022-10-13T08:02:36.102Z,14.48
2022-10-13T08:05:39.296Z,15.57
2022-10-13T08:08:41.344Z,14.90
2022-10-13T08:11:47.003Z,15.43
2022-10-13T08:14:52.175Z,15.50
2022-10-13T08:17:54.593Z,15.83
2022-10-13T08:24:25.473Z,16.90
2022-10-13T08:27:47.642Z,16.00
2022-10-13T08:30:51.838Z,14.90
2022-10-13T08:33:53.978Z,14.35
2022-10-13T08:36:57.388Z,14.38
2022-10-13T08:39:59.498Z,14.63
2022-10-13T08:43:07.021Z,12.52
2022-10-13T08:46:12.818Z,13.82
2022-10-13T08:49:17.278Z,13.95
2022-10-13T08:52:24.579Z,14.98
2022-10-13T08:55:48.615Z,14.73
2022-10-13T08:58:54.244Z,13.48
2022-10-13T09:01:57.479Z,12.02
2022-10-13T09:05:02.768Z,13.70
2022-10-13T09:08:15.751Z,13.25
2022-10-13T09:11:18.357Z,11.85
2022-10-13T09:14:32.629Z,10.13
2022-10-13T09:17:35.892Z,10.50
2022-10-13T09:20:39.109Z,10.32
2022-10-13T09:23:42.048Z,9.73
2022-10-13T09:26:45.942Z,9.18
2022-10-13T09:29:48.032Z,9.93
2022-10-13T09:32:50.338Z,10.00
2022-10-13T09:36:02.264Z,9.35
2022-10-13T09:39:08.982Z,10.52
2022-10-13T09:42:27.081Z,10.25
2022-10-13T09:45:32.654Z,10.07
2022-10-13T09:48:36.777Z,10.20
2022-10-13T09:51:41.791Z,10.05
2022-10-13T09:54:50.999Z,9.90
2022-10-13T09:57:55.990Z,10.57
2022-10-13T10:00:59.294Z,9.52
2022-10-13T10:04:07.027Z,9.02
2022-10-13T10:07:18.763Z,9.88
2022-10-13T10:10:33.306Z,9.68
2022-10-13T10:13:37.140Z,9.40
2022-10-13T10:16:46.214Z,8.95
2022-10-13T10:19:59.472Z,9.65
2022-10-13T10:23:25.888Z,8.80
2022-10-13T10:26:51.273Z,9.05
2022-10-13T10:30:05.841Z,9.43
2022-10-13T10:33:40.197Z,9.93
2022-10-13T10:36:53.700Z,9.40
2022-10-13T10:40:27.314Z,8.55
2022-10-13T10:43:38.875Z,8.98
2022-10-13T10:46:47.042Z,10.57
2022-10-13T10:49:53.411Z,9.77
2022-10-13T10:53:04.946Z,10.10
2022-10-13T10:56:24.566Z,12.75
2022-10-13T10:59:40.342Z,12.37
2022-10-13T11:03:08.340Z,11.63
2022-10-13T11:06:16.451Z,11.38
2022-10-13T11:09:41.722Z,10.80
2022-10-13T11:12:46.862Z,12.73
2022-10-13T11:15:49.557Z,10.85
2022-10-13T11:19:12.982Z,9.95
2022-10-13T11:22:20.733Z,11.60
2022-10-13T11:25:41.856Z,11.25
2022-10-13T11:28:46.315Z,10.77
2022-10-13T11:31:53.227Z,12.07
2022-10-13T11:35:05.753Z,11.23
2022-10-13T11:38:23.812Z,11.15
2022-10-13T11:41:33.796Z,10.75
2022-10-13T11:44:59.110Z,9.73
2022-10-13T11:48:10.735Z,11.52
2022-10-13T11:51:49.925Z,10.85
2022-10-13T11:55:01.390Z,11.45
2022-10-13T11:58:08.842Z,11.00
2022-10-13T12:01:14.806Z,11.70
2022-10-13T12:04:22.372Z,11.65
2022-10-13T12:07:28.190Z,11.05
2022-10-13T12:13:37.934Z,10.68
2022-10-13T12:16:52.490Z,10.60
2022-10-13T12:19:56.741Z,11.30
2022-10-13T12:23:00.813Z,11.27
2022-10-13T12:26:03.454Z,10.77
2022-10-13T12:29:13.943Z,11.63
2022-10-13T12:32:38.120Z,10.55
2022-10-13T12:39:15.356Z,10.15
2022-10-13T12:42:33.017Z,10.68
2022-10-13T12:48:39.863Z,9.55
2022-10-13T12:52:24.695Z,10.82
2022-10-13T12:55:32.284Z,10.10
2022-10-13T12:58:36.043Z,9.55
2022-10-13T13:01:40.290Z,10.30
2022-10-13T13:04:48.342Z,9.73
2022-10-13T13:07:53.871Z,11.35
2022-10-13T13:10:58.425Z,9.70
2022-10-13T13:14:39.238Z,10.57
2022-10-13T13:21:06.573Z,10.27
2022-10-13T13:24:21.816Z,10.55
2022-10-13T13:27:38.331Z,10.40
2022-10-13T13:30:41.534Z,9.48
2022-10-13T13:33:49.382Z,10.60
2022-10-13T13:37:05.719Z,10.80
2022-10-13T13:40:18.594Z,11.55
2022-10-13T13:43:20.680Z,11.70
2022-10-13T13:46:30.103Z,11.35
2022-10-13T13:49:32.385Z,9.85
2022-10-13T13:52:35.165Z,11.38
2022-10-13T13:55:37.893Z,10.52
2022-10-13T13:58:40.946Z,11.80
2022-10-13T14:01:43.470Z,10.48
2022-10-13T14:04:46.020Z,11.02
2022-10-13T14:07:48.065Z,10.95
2022-10-13T14:10:50.332Z,11.75
2022-10-13T14:13:53.174Z,11.43
2022-10-13T14:17:03.699Z,12.02
2022-10-13T14:20:06.259Z,12.35
2022-10-13T14:23:12.160Z,11.52
2022-10-13T14:26:15.146Z,13.27
2022-10-13T14:29:17.458Z,12.40
2022-10-13T14:32:19.788Z,11.68
2022-10-13T14:35:22.334Z,11.40
2022-10-13T14:38:24.388Z,11.38
2022-10-13T14:41:26.815Z,13.38
2022-10-13T14:44:28.829Z,11.25
2022-10-13T14:47:31.106Z,11.55
2022-10-13T14:50:33.697Z,11.30
2022-10-13T14:53:38.285Z,11.12
2022-10-13T14:56:40.458Z,11.35
2022-10-13T14:59:43.325Z,11.93
2022-10-13T15:02:45.354Z,11.18
2022-10-13T15:05:47.707Z,11.32
2022-10-13T15:08:53.298Z,12.00
2022-10-13T15:11:57.418Z,14.40
2022-10-13T15:14:59.440Z,11.35
2022-10-13T15:18:01.749Z,11.40
2022-10-13T15:21:03.881Z,13.23
2022-10-13T15:24:06.682Z,12.25
2022-10-13T15:27:08.878Z,11.55
2022-10-13T15:30:11.675Z,11.23
2022-10-13T15:33:13.790Z,12.00
